Seven Seas — J8B5110 — position and weather

sailwx.info

Track history (hours):
 
Tides and Currents Weather Stations Pressure Air Temp Water Temp Dewpoint Dewpoint Depression Visibility Wind Speed Wind Dir Waves Ship Positions

Seven Seas

Last reported at 2018-Feb-18 06:28 UTC. Time now 2018-Feb-18 06:36 UTC.
Position N 32°54' E 034°57'.

Length 88 m; draft 5.6 m.

Type: Cargo ship. MMSI: 376783000.

Date/timePositionNaut miles runAvg speedWind from/ knotsBaromVisibWave heightAir tempDewpointWater temp
2018-Feb-18 06:28N 32°54' E 034°57'3 4.4
2018-Feb-18 05:47N 32°54' E 034°54'1 2.4
2018-Feb-18 05:30N 32°54' E 034°53'1 1.4
2018-Feb-18 05:00N 32°54' E 034°54'1 1.4
2018-Feb-18 04:15N 32°54' E 034°55'0 1.4
2018-Feb-18 03:59N 32°54' E 034°55'1 1.3
2018-Feb-18 03:30N 32°53' E 034°56'1 1.4
2018-Feb-18 03:00N 32°53' E 034°57'1 1.2
2018-Feb-18 02:21N 32°53' E 034°57'0 1.1
2018-Feb-18 01:59N 32°53' E 034°58'1 1.2
2018-Feb-18 01:28N 32°52' E 034°59'1 1.2
2018-Feb-18 01:00N 32°52' E 034°59'1 0.1
2018-Feb-17 18:38N 32°52' E 035°00'0 0.0
2018-Feb-17 13:31N 32°52' E 035°00'0 0.1
2018-Feb-17 13:20N 32°52' E 035°00'0 0.0
2018-Feb-17 12:50N 32°52' E 035°00'0 0.0
2018-Feb-17 12:14N 32°52' E 035°00'0 0.0
2018-Feb-17 11:50N 32°52' E 035°00'0 0.0
2018-Feb-17 11:26N 32°52' E 035°00'0 0.0
2018-Feb-17 10:50N 32°52' E 035°00'0 0.0
2018-Feb-17 07:58N 32°52' E 034°60'0 0.0
2018-Feb-17 07:20N 32°52' E 034°60'0 0.0
2018-Feb-17 06:56N 32°52' E 034°60'0 0.0
2018-Feb-16 22:02N 32°52' E 034°60'0 0.1
2018-Feb-16 21:50N 32°52' E 034°60'0 0.0
2018-Feb-16 21:26N 32°52' E 034°60'0 0.0
2018-Feb-16 20:50N 32°52' E 034°60'0 0.0
2018-Feb-16 20:26N 32°52' E 034°60'0 0.0
2018-Feb-16 14:32N 32°52' E 035°00'0 0.0
2018-Feb-16 14:26N 32°52' E 035°00'0 0.1
2018-Feb-16 13:50N 32°52' E 034°60'0 0.1
2018-Feb-16 13:26N 32°52' E 034°60'0 0.1
2018-Feb-16 12:44N 32°52' E 034°60'0 0.0
2018-Feb-16 12:26N 32°52' E 034°60'0 0.0
2018-Feb-16 11:56N 32°52' E 034°60'0 0.0
2018-Feb-16 11:13N 32°52' E 034°60'0 0.0
2018-Feb-16 10:49N 32°52' E 034°60'0 0.0
2018-Feb-16 10:19N 32°52' E 034°60'0 0.0
2018-Feb-16 07:37N 32°52' E 034°60'0 0.0
2018-Feb-16 01:01N 32°52' E 034°60'0 0.0
2018-Feb-16 00:49N 32°52' E 034°60'0 0.0
2018-Feb-16 00:25N 32°52' E 034°60'0 0.0
2018-Feb-15 14:38N 32°52' E 034°60'0 1.8
2018-Feb-15 14:27N 32°52' E 034°60'3 5.3
2018-Feb-15 13:55N 32°52' E 034°56'3 7.2
2018-Feb-15 13:30N 32°53' E 034°53'5 8.6
2018-Feb-15 12:55N 32°54' E 034°47'4 8.6
2018-Feb-15 12:30N 32°54' E 034°43'4 8.9
2018-Feb-15 12:00N 32°55' E 034°37'  
2018-Feb-12 18:16N 32°54' E 034°47'2 9.4
2018-Feb-12 18:00N 32°54' E 034°50'5 9.3
2018-Feb-12 17:29N 32°53' E 034°56'4 1.6
2018-Feb-12 15:01N 32°52' E 035°00'0 0.1
2018-Feb-12 14:55N 32°52' E 035°00'0 0.0
2018-Feb-12 14:25N 32°52' E 035°00'0 0.0
2018-Feb-12 13:43N 32°52' E 035°00'0 0.0
2018-Feb-12 13:19N 32°52' E 035°00'0 0.0
2018-Feb-11 09:13N 32°52' E 035°00'0 0.0
2018-Feb-11 08:43N 32°52' E 035°00'0 0.7
2018-Feb-11 08:18N 32°51' E 035°00'  
Track history (hours):
 
Tides and Currents Weather Stations Pressure Air Temp Water Temp Dewpoint Dewpoint Depression Visibility Wind Speed Wind Dir Waves Ship Positions

Seven Seas

Last reported at 2018-Feb-18 06:28 UTC. Time now 2018-Feb-18 06:36 UTC.
Position N 32°54' E 034°57'.

Length 88 m; draft 5.6 m.

Type: Cargo ship. MMSI: 376783000.

Date/timePositionNaut miles runAvg speedWind from/ knotsBaromVisibWave heightAir tempDewpointWater temp
2018-Feb-18 06:28N 32°54' E 034°57'3 4.4
2018-Feb-18 05:47N 32°54' E 034°54'1 2.4
2018-Feb-18 05:30N 32°54' E 034°53'1 1.4
2018-Feb-18 05:00N 32°54' E 034°54'1 1.4
2018-Feb-18 04:15N 32°54' E 034°55'0 1.4
2018-Feb-18 03:59N 32°54' E 034°55'1 1.3
2018-Feb-18 03:30N 32°53' E 034°56'1 1.4
2018-Feb-18 03:00N 32°53' E 034°57'1 1.2
2018-Feb-18 02:21N 32°53' E 034°57'0 1.1
2018-Feb-18 01:59N 32°53' E 034°58'1 1.2
2018-Feb-18 01:28N 32°52' E 034°59'1 1.2
2018-Feb-18 01:00N 32°52' E 034°59'1 0.1
2018-Feb-17 18:38N 32°52' E 035°00'0 0.0
2018-Feb-17 13:31N 32°52' E 035°00'0 0.1
2018-Feb-17 13:20N 32°52' E 035°00'0 0.0
2018-Feb-17 12:50N 32°52' E 035°00'0 0.0
2018-Feb-17 12:14N 32°52' E 035°00'0 0.0
2018-Feb-17 11:50N 32°52' E 035°00'0 0.0
2018-Feb-17 11:26N 32°52' E 035°00'0 0.0
2018-Feb-17 10:50N 32°52' E 035°00'0 0.0
2018-Feb-17 07:58N 32°52' E 034°60'0 0.0
2018-Feb-17 07:20N 32°52' E 034°60'0 0.0
2018-Feb-17 06:56N 32°52' E 034°60'0 0.0
2018-Feb-16 22:02N 32°52' E 034°60'0 0.1
2018-Feb-16 21:50N 32°52' E 034°60'0 0.0
2018-Feb-16 21:26N 32°52' E 034°60'0 0.0
2018-Feb-16 20:50N 32°52' E 034°60'0 0.0
2018-Feb-16 20:26N 32°52' E 034°60'0 0.0
2018-Feb-16 14:32N 32°52' E 035°00'0 0.0
2018-Feb-16 14:26N 32°52' E 035°00'0 0.1
2018-Feb-16 13:50N 32°52' E 034°60'0 0.1
2018-Feb-16 13:26N 32°52' E 034°60'0 0.1
2018-Feb-16 12:44N 32°52' E 034°60'0 0.0
2018-Feb-16 12:26N 32°52' E 034°60'0 0.0
2018-Feb-16 11:56N 32°52' E 034°60'0 0.0
2018-Feb-16 11:13N 32°52' E 034°60'0 0.0
2018-Feb-16 10:49N 32°52' E 034°60'0 0.0
2018-Feb-16 10:19N 32°52' E 034°60'0 0.0
2018-Feb-16 07:37N 32°52' E 034°60'0 0.0
2018-Feb-16 01:01N 32°52' E 034°60'0 0.0
2018-Feb-16 00:49N 32°52' E 034°60'0 0.0
2018-Feb-16 00:25N 32°52' E 034°60'0 0.0
2018-Feb-15 14:38N 32°52' E 034°60'0 1.8
2018-Feb-15 14:27N 32°52' E 034°60'3 5.3
2018-Feb-15 13:55N 32°52' E 034°56'3 7.2
2018-Feb-15 13:30N 32°53' E 034°53'5 8.6
2018-Feb-15 12:55N 32°54' E 034°47'4 8.6
2018-Feb-15 12:30N 32°54' E 034°43'4 8.9
2018-Feb-15 12:00N 32°55' E 034°37'  
2018-Feb-12 18:16N 32°54' E 034°47'2 9.4
2018-Feb-12 18:00N 32°54' E 034°50'5 9.3
2018-Feb-12 17:29N 32°53' E 034°56'4 1.6
2018-Feb-12 15:01N 32°52' E 035°00'0 0.1
2018-Feb-12 14:55N 32°52' E 035°00'0 0.0
2018-Feb-12 14:25N 32°52' E 035°00'0 0.0
2018-Feb-12 13:43N 32°52' E 035°00'0 0.0
2018-Feb-12 13:19N 32°52' E 035°00'0 0.0
2018-Feb-11 09:13N 32°52' E 035°00'0 0.0
2018-Feb-11 08:43N 32°52' E 035°00'0 0.7
2018-Feb-11 08:18N 32°51' E 035°00'  

Dump ship's entire track history